createdAt,value
2022-10-02T00:02:46.812Z,12.50
2022-10-02T00:05:53.687Z,12.60
2022-10-02T00:09:02.483Z,12.60
2022-10-02T00:12:08.721Z,12.60
2022-10-02T00:15:19.739Z,12.60
2022-10-02T00:18:27.202Z,12.60
2022-10-02T00:21:49.862Z,12.60
2022-10-02T00:24:59.664Z,12.60
2022-10-02T00:28:13.465Z,12.60
2022-10-02T00:31:28.815Z,12.60
2022-10-02T00:34:41.115Z,12.60
2022-10-02T00:37:54.131Z,12.60
2022-10-02T00:41:17.115Z,12.60
2022-10-02T00:44:41.169Z,12.60
2022-10-02T00:47:54.405Z,12.50
2022-10-02T00:51:06.924Z,12.50
2022-10-02T00:54:25.002Z,12.50
2022-10-02T00:57:43.428Z,12.60
2022-10-02T01:00:55.445Z,12.60
2022-10-02T01:04:01.874Z,12.60
2022-10-02T01:07:07.227Z,12.60
2022-10-02T01:10:11.098Z,12.60
2022-10-02T01:13:14.259Z,12.60
2022-10-02T01:16:17.964Z,12.50
2022-10-02T01:19:29.422Z,12.50
2022-10-02T01:22:38.310Z,12.40
2022-10-02T01:25:43.576Z,12.40
2022-10-02T01:28:46.704Z,12.30
2022-10-02T01:31:49.879Z,12.30
2022-10-02T01:34:53.438Z,12.40
2022-10-02T01:37:56.854Z,12.40
2022-10-02T01:41:01.134Z,12.40
2022-10-02T01:44:04.241Z,12.40
2022-10-02T01:47:13.143Z,12.40
2022-10-02T01:50:24.312Z,12.50
2022-10-02T01:53:34.024Z,12.60
2022-10-02T01:56:45.286Z,12.60
2022-10-02T01:59:57.190Z,12.60
2022-10-02T02:03:12.477Z,12.60
2022-10-02T02:06:22.546Z,12.60
2022-10-02T02:09:33.455Z,12.60
2022-10-02T02:12:43.892Z,12.70
2022-10-02T02:15:53.277Z,12.70
2022-10-02T02:19:04.131Z,12.70
2022-10-02T02:22:11.237Z,12.70
2022-10-02T02:25:18.987Z,12.70
2022-10-02T02:28:26.266Z,12.70
2022-10-02T02:31:33.747Z,12.70
2022-10-02T02:34:41.783Z,12.60
2022-10-02T02:37:47.691Z,12.60
2022-10-02T02:40:51.594Z,12.60
2022-10-02T02:44:01.039Z,12.50
2022-10-02T02:47:08.917Z,12.40
2022-10-02T02:50:15.622Z,12.40
2022-10-02T02:53:22.421Z,12.30
2022-10-02T02:56:28.513Z,12.20
2022-10-02T02:59:34.976Z,12.30
2022-10-02T03:02:38.018Z,12.20
2022-10-02T03:05:45.903Z,12.10
2022-10-02T03:08:52.242Z,12.10
2022-10-02T03:12:08.082Z,12.20
2022-10-02T03:15:39.952Z,12.20
2022-10-02T03:19:01.160Z,12.30
2022-10-02T03:22:10.487Z,12.40
2022-10-02T03:25:16.618Z,12.40
2022-10-02T03:28:50.612Z,12.40
2022-10-02T03:31:50.824Z,12.30
2022-10-02T03:34:54.279Z,12.30
2022-10-02T03:38:00.818Z,12.30
2022-10-02T03:41:03.847Z,12.30
2022-10-02T03:44:06.787Z,12.30
2022-10-02T03:47:11.122Z,12.20
2022-10-02T03:50:14.473Z,12.10
2022-10-02T03:53:19.409Z,12.00
2022-10-02T03:56:37.739Z,12.00
2022-10-02T03:59:45.665Z,11.90
2022-10-02T04:02:55.123Z,11.90
2022-10-02T04:06:02.445Z,12.00
2022-10-02T04:09:10.662Z,12.00
2022-10-02T04:12:17.591Z,12.00
2022-10-02T04:15:26.623Z,11.80
2022-10-02T04:18:37.710Z,11.80
2022-10-02T04:21:46.510Z,11.70
2022-10-02T04:24:54.507Z,11.60
2022-10-02T04:28:00.422Z,11.60
2022-10-02T04:31:06.360Z,11.60
2022-10-02T04:34:14.787Z,11.60
2022-10-02T04:37:35.288Z,11.60
2022-10-02T04:40:50.523Z,11.60
2022-10-02T04:44:03.587Z,11.60
2022-10-02T04:47:22.987Z,11.60
2022-10-02T04:50:45.998Z,11.70
2022-10-02T04:54:07.091Z,11.70
2022-10-02T04:57:29.129Z,11.80
2022-10-02T05:00:41.795Z,11.80
2022-10-02T05:04:23.416Z,11.80
2022-10-02T05:07:46.752Z,11.80
2022-10-02T05:11:05.846Z,11.90
2022-10-02T05:14:26.660Z,11.90
2022-10-02T05:17:53.557Z,11.90
2022-10-02T05:21:13.131Z,11.90
2022-10-02T05:24:34.802Z,11.90
2022-10-02T05:27:56.990Z,12.00
2022-10-02T05:31:13.354Z,12.00
2022-10-02T05:34:29.195Z,12.00
2022-10-02T05:37:48.163Z,11.90
2022-10-02T05:41:02.020Z,11.90
2022-10-02T05:44:13.315Z,11.80
2022-10-02T05:47:20.229Z,11.90
2022-10-02T05:50:28.259Z,11.80
2022-10-02T05:53:36.188Z,11.80
2022-10-02T05:56:45.598Z,11.90
2022-10-02T06:00:08.842Z,11.90
2022-10-02T06:03:18.130Z,12.00
2022-10-02T06:06:25.064Z,12.10
2022-10-02T06:09:31.949Z,12.10
2022-10-02T06:12:40.935Z,12.20
2022-10-02T06:15:49.046Z,12.30
2022-10-02T06:18:56.740Z,12.30
2022-10-02T06:22:07.251Z,12.40
2022-10-02T06:25:15.000Z,12.40
2022-10-02T06:28:25.288Z,12.40
2022-10-02T06:31:37.930Z,12.40
2022-10-02T06:34:44.563Z,12.40
2022-10-02T06:37:59.280Z,12.40
2022-10-02T06:41:09.205Z,12.40
2022-10-02T06:44:27.668Z,12.40
2022-10-02T06:47:44.575Z,12.50
2022-10-02T06:50:56.211Z,12.60
2022-10-02T06:54:11.876Z,12.60
2022-10-02T06:57:36.193Z,12.60
2022-10-02T07:00:47.787Z,12.60
2022-10-02T07:04:14.100Z,12.60
2022-10-02T07:07:30.731Z,12.60
2022-10-02T07:10:39.293Z,12.60
2022-10-02T07:13:57.370Z,12.60
2022-10-02T07:17:22.401Z,12.60
2022-10-02T07:20:37.548Z,12.70
2022-10-02T07:23:56.744Z,12.80
2022-10-02T07:27:11.134Z,12.90
2022-10-02T07:30:17.228Z,13.00
2022-10-02T07:33:31.450Z,13.10
2022-10-02T07:36:43.383Z,13.20
2022-10-02T07:39:57.205Z,13.20
2022-10-02T07:43:12.523Z,13.00
2022-10-02T07:46:21.314Z,12.90
2022-10-02T07:49:38.073Z,12.80
2022-10-02T07:52:50.523Z,12.70
2022-10-02T07:55:55.793Z,12.60
2022-10-02T07:59:05.094Z,12.60
2022-10-02T08:02:18.731Z,12.60
2022-10-02T08:05:25.747Z,12.70
2022-10-02T08:08:33.005Z,12.70
2022-10-02T08:11:43.286Z,12.80
2022-10-02T08:14:52.542Z,12.80
2022-10-02T08:18:16.407Z,12.80
2022-10-02T08:21:27.075Z,12.90
2022-10-02T08:24:37.419Z,13.10
2022-10-02T08:27:50.100Z,13.30
2022-10-02T08:30:53.089Z,13.50
2022-10-02T08:33:57.919Z,13.60
2022-10-02T08:37:17.889Z,13.50
2022-10-02T08:40:57.406Z,13.50
2022-10-02T08:44:36.030Z,13.40
2022-10-02T08:48:17.739Z,13.40
2022-10-02T08:51:56.714Z,13.40
2022-10-02T08:55:22.657Z,13.30
2022-10-02T08:59:05.393Z,13.20
2022-10-02T09:02:50.574Z,13.20
2022-10-02T09:06:28.200Z,13.20
2022-10-02T09:10:13.650Z,13.30
2022-10-02T09:13:56.948Z,13.40
2022-10-02T09:17:17.734Z,13.50
2022-10-02T09:20:48.999Z,13.60
2022-10-02T09:24:34.032Z,13.70
2022-10-02T09:28:04.844Z,13.80
2022-10-02T09:31:41.082Z,13.80
2022-10-02T09:35:04.047Z,13.80
2022-10-02T09:38:46.560Z,13.80
2022-10-02T09:42:16.754Z,13.90
2022-10-02T09:45:46.671Z,14.20
2022-10-02T09:49:26.849Z,14.40
2022-10-02T09:53:02.694Z,14.50
2022-10-02T09:56:27.482Z,14.60
2022-10-02T09:59:59.527Z,14.60
2022-10-02T10:03:38.200Z,14.70
2022-10-02T10:07:16.302Z,14.60
2022-10-02T10:11:11.137Z,14.70
2022-10-02T10:14:50.061Z,14.80
2022-10-02T10:18:34.135Z,15.00
2022-10-02T10:22:16.147Z,15.20
2022-10-02T10:25:50.187Z,15.30
2022-10-02T10:29:32.907Z,15.40
2022-10-02T10:33:11.817Z,15.50
2022-10-02T10:37:04.023Z,15.50
2022-10-02T10:40:28.424Z,15.70
2022-10-02T10:43:56.099Z,15.70
2022-10-02T10:47:52.984Z,15.80
2022-10-02T10:51:03.575Z,15.90
2022-10-02T10:54:44.770Z,15.90
2022-10-02T10:58:14.897Z,16.10
2022-10-02T11:01:20.086Z,16.10
2022-10-02T11:04:43.680Z,16.30
2022-10-02T11:08:07.428Z,16.40
2022-10-02T11:11:20.629Z,16.50
2022-10-02T11:14:34.198Z,16.60
2022-10-02T11:18:03.968Z,16.90
2022-10-02T11:21:21.680Z,17.20
2022-10-02T11:25:12.542Z,17.50
2022-10-02T11:28:56.248Z,17.30
2022-10-02T11:32:19.372Z,17.30
2022-10-02T11:35:26.376Z,17.30
2022-10-02T11:38:56.082Z,17.30
2022-10-02T11:42:22.026Z,17.40
2022-10-02T11:46:06.558Z,17.80
2022-10-02T11:49:48.213Z,19.10
2022-10-02T11:53:08.450Z,20.00
2022-10-02T11:56:43.039Z,20.20
2022-10-02T12:00:13.966Z,20.60
2022-10-02T12:03:27.699Z,21.40
2022-10-02T12:06:43.944Z,21.60
2022-10-02T12:09:57.866Z,22.70
2022-10-02T12:13:26.298Z,23.70
2022-10-02T12:16:48.646Z,24.10
2022-10-02T12:20:23.889Z,24.50
2022-10-02T12:23:55.890Z,25.20
2022-10-02T12:27:09.791Z,25.20
2022-10-02T12:30:15.997Z,25.20
2022-10-02T12:33:27.808Z,25.60
2022-10-02T12:36:56.463Z,26.00
2022-10-02T12:40:10.118Z,26.20
2022-10-02T12:43:44.643Z,26.00
2022-10-02T12:47:04.870Z,26.70
2022-10-02T12:50:23.313Z,27.50
2022-10-02T12:54:04.574Z,27.40
2022-10-02T12:57:41.779Z,26.90
2022-10-02T13:01:12.027Z,27.10
2022-10-02T13:04:41.763Z,27.00
2022-10-02T13:08:25.541Z,26.10
2022-10-02T13:11:40.953Z,24.90
2022-10-02T13:15:15.064Z,22.90
2022-10-02T13:18:44.753Z,21.60
2022-10-02T13:21:56.599Z,20.90
2022-10-02T13:25:19.812Z,20.10
2022-10-02T13:28:49.837Z,20.80
2022-10-02T13:32:10.322Z,21.00
2022-10-02T13:35:37.925Z,20.70
2022-10-02T13:38:59.430Z,20.40
2022-10-02T13:42:18.040Z,20.60
2022-10-02T13:45:31.680Z,20.90
2022-10-02T13:48:46.712Z,20.70
2022-10-02T13:51:57.542Z,20.30
2022-10-02T13:55:16.450Z,19.80
2022-10-02T13:58:31.770Z,19.30
2022-10-02T14:01:50.092Z,19.10
2022-10-02T14:05:00.095Z,18.90
2022-10-02T14:08:16.901Z,18.90
2022-10-02T14:11:31.331Z,18.80
2022-10-02T14:14:51.114Z,18.50
2022-10-02T14:18:17.658Z,18.40
2022-10-02T14:21:28.331Z,18.20
2022-10-02T14:25:01.291Z,17.90
2022-10-02T14:28:29.375Z,17.80
2022-10-02T14:32:16.046Z,17.70
2022-10-02T14:35:34.557Z,17.60
2022-10-02T14:39:01.418Z,17.80
2022-10-02T14:42:20.419Z,17.70
2022-10-02T14:45:54.352Z,17.80
2022-10-02T14:49:19.078Z,17.80
2022-10-02T14:52:37.337Z,17.70
2022-10-02T14:56:01.855Z,17.70
2022-10-02T14:59:25.475Z,17.70
2022-10-02T15:02:45.435Z,17.60
2022-10-02T15:06:13.573Z,17.60
2022-10-02T15:09:23.536Z,17.60
2022-10-02T15:12:34.461Z,17.60
2022-10-02T15:15:42.175Z,17.60
2022-10-02T15:18:50.298Z,17.50
2022-10-02T15:21:59.158Z,17.50
2022-10-02T15:25:17.979Z,17.50
2022-10-02T15:28:37.958Z,17.50
2022-10-02T15:31:46.087Z,17.40
2022-10-02T15:34:59.439Z,17.20
2022-10-02T15:38:26.322Z,17.00
2022-10-02T15:41:46.567Z,16.90
2022-10-02T15:45:16.867Z,16.80
2022-10-02T15:48:48.972Z,16.60
2022-10-02T15:52:11.361Z,16.60
2022-10-02T15:55:21.882Z,16.50
2022-10-02T15:58:51.038Z,16.50
2022-10-02T16:02:08.278Z,16.40
2022-10-02T16:05:29.834Z,16.40
2022-10-02T16:09:07.633Z,16.40
2022-10-02T16:12:33.733Z,16.30
2022-10-02T16:15:51.989Z,16.20
2022-10-02T16:19:08.330Z,16.20
2022-10-02T16:22:24.295Z,16.20
2022-10-02T16:25:53.057Z,16.00
2022-10-02T16:29:10.723Z,15.90
2022-10-02T16:32:27.878Z,15.90
2022-10-02T16:36:08.201Z,15.80
2022-10-02T16:39:38.510Z,15.70
2022-10-02T16:42:52.793Z,15.60
2022-10-02T16:46:06.029Z,15.50
2022-10-02T16:49:23.623Z,15.50
2022-10-02T16:52:33.925Z,15.40
2022-10-02T16:55:41.313Z,15.40
2022-10-02T16:58:51.224Z,15.30
2022-10-02T17:02:16.866Z,15.20
2022-10-02T17:05:31.257Z,15.20
2022-10-02T17:08:42.709Z,15.20
2022-10-02T17:11:52.349Z,15.10
2022-10-02T17:15:00.424Z,15.10
2022-10-02T17:18:20.643Z,15.00
2022-10-02T17:21:28.898Z,15.00
2022-10-02T17:24:38.727Z,14.90
2022-10-02T17:27:51.328Z,14.90
2022-10-02T17:31:15.126Z,14.80
2022-10-02T17:34:21.935Z,14.80
2022-10-02T17:37:53.512Z,14.80
2022-10-02T17:41:07.957Z,14.70
2022-10-02T17:44:23.309Z,14.70
2022-10-02T17:47:48.583Z,14.70
2022-10-02T17:51:39.047Z,14.70
2022-10-02T17:55:09.749Z,14.60
2022-10-02T17:58:20.172Z,14.60
2022-10-02T18:01:36.601Z,14.50
2022-10-02T18:04:56.847Z,14.50
2022-10-02T18:08:12.448Z,14.50
2022-10-02T18:11:43.147Z,14.50
2022-10-02T18:15:11.699Z,14.40
2022-10-02T18:18:24.874Z,14.40
2022-10-02T18:21:37.518Z,14.40
2022-10-02T18:25:11.759Z,14.30
2022-10-02T18:28:32.830Z,14.30
2022-10-02T18:32:06.948Z,14.20
2022-10-02T18:35:26.314Z,14.20
2022-10-02T18:38:32.062Z,14.10
2022-10-02T18:41:48.083Z,14.00
2022-10-02T18:45:04.255Z,14.10
2022-10-02T18:48:22.449Z,14.10
2022-10-02T18:51:39.220Z,14.10
2022-10-02T18:54:55.716Z,14.00
2022-10-02T18:58:12.121Z,14.00
2022-10-02T19:01:38.204Z,14.00
2022-10-02T19:05:00.627Z,14.00
2022-10-02T19:08:18.686Z,13.90
2022-10-02T19:11:28.410Z,13.90
2022-10-02T19:14:36.720Z,14.00
2022-10-02T19:17:41.254Z,14.00
2022-10-02T19:20:50.575Z,14.00
2022-10-02T19:24:02.252Z,14.00
2022-10-02T19:27:08.584Z,14.10
2022-10-02T19:30:25.365Z,14.10
2022-10-02T19:33:41.224Z,14.10
2022-10-02T19:36:50.072Z,14.00
2022-10-02T19:39:56.354Z,14.00
2022-10-02T19:43:07.217Z,13.90
2022-10-02T19:46:11.260Z,13.80
2022-10-02T19:49:21.965Z,13.80
2022-10-02T19:52:37.536Z,13.80
2022-10-02T19:55:43.355Z,13.70
2022-10-02T19:58:50.036Z,13.70
2022-10-02T20:01:54.862Z,13.70
2022-10-02T20:05:03.606Z,13.70
2022-10-02T20:08:14.104Z,13.60
2022-10-02T20:11:23.151Z,13.50
2022-10-02T20:14:32.008Z,13.50
2022-10-02T20:17:35.267Z,13.50
2022-10-02T20:20:42.689Z,13.50
2022-10-02T20:23:50.090Z,13.50
2022-10-02T20:26:58.032Z,13.50
2022-10-02T20:30:06.063Z,13.60
2022-10-02T20:33:14.619Z,13.60
2022-10-02T20:36:25.058Z,13.60
2022-10-02T20:39:34.816Z,13.70
2022-10-02T20:42:43.669Z,13.70
2022-10-02T20:45:50.501Z,13.60
2022-10-02T20:49:08.857Z,13.70
2022-10-02T20:52:49.085Z,13.60
2022-10-02T20:55:56.512Z,13.50
2022-10-02T20:59:39.374Z,13.50
2022-10-02T21:03:17.089Z,13.50
2022-10-02T21:06:37.524Z,13.50
2022-10-02T21:10:29.878Z,13.40
2022-10-02T21:14:02.889Z,13.40
2022-10-02T21:17:39.554Z,13.40
2022-10-02T21:21:11.609Z,13.30
2022-10-02T21:24:56.856Z,13.30
2022-10-02T21:28:35.310Z,13.20
2022-10-02T21:31:56.289Z,13.20
2022-10-02T21:35:08.745Z,13.10
2022-10-02T21:38:39.504Z,13.10
2022-10-02T21:42:17.583Z,13.10
2022-10-02T21:46:08.237Z,13.10
2022-10-02T21:49:42.168Z,13.20
2022-10-02T21:53:23.895Z,13.30
2022-10-02T21:57:02.502Z,13.30
2022-10-02T22:00:13.791Z,13.30
2022-10-02T22:03:49.173Z,13.20
2022-10-02T22:06:58.902Z,13.20
2022-10-02T22:10:06.475Z,13.20
2022-10-02T22:13:18.108Z,13.20
2022-10-02T22:16:32.338Z,13.20
2022-10-02T22:19:58.482Z,13.20
2022-10-02T22:23:14.815Z,13.20
2022-10-02T22:26:31.610Z,13.20
2022-10-02T22:29:44.784Z,13.10
2022-10-02T22:33:13.260Z,13.10
2022-10-02T22:36:42.934Z,13.10
2022-10-02T22:39:53.795Z,13.10
2022-10-02T22:43:01.286Z,13.10
2022-10-02T22:46:08.335Z,13.10
2022-10-02T22:49:20.839Z,13.00
2022-10-02T22:52:29.035Z,13.00
2022-10-02T22:55:37.102Z,12.90
2022-10-02T22:58:45.119Z,12.90
2022-10-02T23:01:54.650Z,12.90
2022-10-02T23:05:05.881Z,12.90
2022-10-02T23:08:23.751Z,12.90
2022-10-02T23:11:31.703Z,12.90
2022-10-02T23:14:50.611Z,13.00
2022-10-02T23:17:59.070Z,12.90
2022-10-02T23:21:09.834Z,12.90
2022-10-02T23:24:25.615Z,12.90
2022-10-02T23:27:37.054Z,12.90
2022-10-02T23:30:45.007Z,12.90
2022-10-02T23:33:54.588Z,12.90
2022-10-02T23:37:01.860Z,12.90
2022-10-02T23:40:42.399Z,12.90
2022-10-02T23:43:51.141Z,12.90
2022-10-02T23:47:03.793Z,12.80
2022-10-02T23:50:20.569Z,12.80
2022-10-02T23:53:56.263Z,12.80
2022-10-02T23:57:17.970Z,12.80
